Time;durP1;ratioP1;P1;durP2;ratioP2;P2;SDS_P1;SDS_P2;PMS_P1;PMS_P2;Temp;Humidity;BMP_temperature;BMP_pressure;BME280_temperature;BME280_humidity;BME280_pressure;Samples;Min_cycle;Max_cycle;Signal;HPM_P1;HPM_P2
2021/12/06 00:01:55;;;;;;;87.27;38.90;;;;;;;8.21;100.00;98556.66;4897942;29;20315;-85
2021/12/06 00:04:28;;;;;;;89.93;40.00;;;;;;;8.17;100.00;98552.28;4842099;29;20256;-85
2021/12/06 00:07:02;;;;;;;91.17;39.73;;;;;;;8.44;100.00;98577.72;4842134;29;20200;-84
2021/12/06 00:09:30;;;;;;;92.33;41.83;;;;;;;8.13;100.00;98530.28;4842499;29;20200;-84
2021/12/06 00:11:59;;;;;;;86.90;41.17;;;;;;;8.45;100.00;98587.88;4852717;29;20169;-86
2021/12/06 00:14:30;;;;;;;89.80;41.33;;;;;;;6.46;100.00;98249.16;4852310;29;20199;-85
2021/12/06 00:17:00;;;;;;;94.37;42.13;;;;;;;7.64;100.00;98457.78;4843333;29;20164;-84
2021/12/06 00:19:27;;;;;;;91.57;42.40;;;;;;;6.57;100.00;98256.28;4842687;29;20177;-85
2021/12/06 00:21:54;;;;;;;103.20;44.47;;;;;;;8.46;100.00;98583.72;4842088;29;20200;-83
2021/12/06 00:24:20;;;;;;;95.97;43.63;;;;;;;8.45;100.00;98590.41;4842010;29;20675;-85
2021/12/06 00:26:46;;;;;;;94.87;44.20;;;;;;;8.49;100.00;98579.63;4841434;29;20204;-86
2021/12/06 00:29:12;;;;;;;105.93;45.63;;;;;;;7.30;100.00;98376.69;4842411;29;20220;-85
2021/12/06 00:31:39;;;;;;;91.53;41.57;;;;;;;6.21;100.00;98196.19;4842260;29;20208;-84
2021/12/06 00:34:10;;;;;;;97.47;44.13;;;;;;;8.36;100.00;98597.59;4841852;29;20200;-84
2021/12/06 00:36:39;;;;;;;94.40;43.30;;;;;;;7.80;100.00;98476.03;4844694;29;20192;-84
2021/12/06 00:39:08;;;;;;;93.33;41.97;;;;;;;7.62;100.00;98443.41;4842165;29;20175;-84
2021/12/06 00:41:34;;;;;;;91.40;41.83;;;;;;;7.42;100.00;98373.78;4880837;29;20198;-85
2021/12/06 00:44:01;;;;;;;90.90;40.90;;;;;;;7.25;100.00;98332.84;4900074;29;20175;-85
2021/12/06 00:46:27;;;;;;;96.70;40.73;;;;;;;7.31;100.00;98375.00;4899259;29;20169;-84
2021/12/06 00:48:53;;;;;;;87.90;39.37;;;;;;;8.73;100.00;98584.75;4899167;29;20605;-84
2021/12/06 00:51:19;;;;;;;89.43;40.60;;;;;;;5.61;100.00;98060.53;4899754;29;20206;-85
2021/12/06 00:53:45;;;;;;;96.50;41.80;;;;;;;6.40;100.00;98173.50;4898137;29;20187;-86
2021/12/06 00:56:12;;;;;;;89.90;41.40;;;;;;;7.04;100.00;98315.25;4899006;29;20262;-84
2021/12/06 00:58:39;;;;;;;92.67;41.33;;;;;;;7.28;100.00;98325.41;4899275;29;20192;-84
2021/12/06 01:01:06;;;;;;;93.20;40.63;;;;;;;7.60;100.00;98413.16;4898965;29;20234;-83
2021/12/06 01:03:36;;;;;;;95.03;40.60;;;;;;;8.63;100.00;98567.53;4898923;29;20548;-84
2021/12/06 01:06:02;;;;;;;92.23;40.67;;;;;;;8.60;100.00;98564.88;4898428;29;20215;-84
2021/12/06 01:08:28;;;;;;;91.17;40.50;;;;;;;6.59;100.00;98229.56;4898570;29;20206;-84
2021/12/06 01:10:54;;;;;;;94.17;39.30;;;;;;;8.55;100.00;98533.59;4898498;29;20163;-84
2021/12/06 01:13:20;;;;;;;89.17;39.27;;;;;;;8.46;100.00;98535.78;4899616;29;20193;-86
2021/12/06 01:15:46;;;;;;;94.23;39.33;;;;;;;7.90;100.00;98417.63;4899459;29;20163;-84
2021/12/06 01:18:14;;;;;;;95.17;39.07;;;;;;;7.35;100.00;98324.88;4899459;29;20182;-85
2021/12/06 01:21:08;;;;;;;91.77;39.77;;;;;;;8.55;100.00;98544.53;4897739;29;20182;-84
2021/12/06 01:23:50;;;;;;;94.70;38.83;;;;;;;8.47;100.00;98545.06;4898504;29;20165;-84
2021/12/06 01:39:08;;;;;;;89.63;37.83;;;;;;;7.41;100.00;98335.19;4917731;29;20307;-85
2021/12/06 01:39:36;;;;;;;99.00;37.07;;;;;;;6.62;100.00;98199.53;4917194;29;20177;-83
2021/12/06 01:42:05;;;;;;;97.43;38.93;;;;;;;8.64;100.00;98528.91;4917497;29;20170;-83
2021/12/06 01:44:36;;;;;;;95.33;38.33;;;;;;;8.63;100.00;98534.72;4919959;29;20174;-83
2021/12/06 01:47:06;;;;;;;90.03;36.90;;;;;;;7.05;100.00;98235.59;4917460;29;20194;-84
2021/12/06 01:49:36;;;;;;;96.63;37.63;;;;;;;7.95;100.00;98403.53;4917574;29;20170;-84
2021/12/06 01:52:06;;;;;;;92.93;37.53;;;;;;;6.13;100.00;98081.09;4918245;29;20193;-84
2021/12/06 01:54:32;;;;;;;85.97;36.60;;;;;;;6.66;100.00;98203.88;4917465;29;20170;-85
2021/12/06 01:56:58;;;;;;;90.13;38.53;;;;;;;6.47;100.00;98174.63;4917437;29;20181;-85
2021/12/06 01:59:26;;;;;;;93.13;37.33;;;;;;;7.98;100.00;98471.69;4917284;29;20277;-85
2021/12/06 02:01:53;;;;;;;97.07;39.03;;;;;;;8.26;100.00;98514.81;4915912;29;20330;-83
2021/12/06 02:04:19;;;;;;;96.43;38.87;;;;;;;7.56;100.00;98396.19;4917115;29;20682;-85
2021/12/06 02:06:45;;;;;;;101.70;40.87;;;;;;;8.34;100.00;98498.34;4916500;29;20296;-85
2021/12/06 02:09:13;;;;;;;96.53;37.67;;;;;;;5.48;100.00;98010.66;4921881;29;20178;-85
2021/12/06 02:11:39;;;;;;;96.40;38.37;;;;;;;7.81;100.00;98395.47;4932943;29;20174;-84
2021/12/06 02:17:00;;;;;;;97.03;37.00;;;;;;;8.43;100.00;98502.88;4927916;29;20176;-84
2021/12/06 02:19:31;;;;;;;104.67;38.03;;;;;;;8.27;100.00;98501.44;4931607;29;20237;-82
2021/12/06 02:21:57;;;;;;;103.77;38.07;;;;;;;6.68;100.00;98255.06;4927577;29;20182;-83
2021/12/06 02:24:23;;;;;;;105.10;38.60;;;;;;;7.04;100.00;98269.97;4922297;29;20201;-84
2021/12/06 02:26:51;;;;;;;102.17;38.43;;;;;;;8.42;100.00;98488.53;4921312;29;20198;-84
2021/12/06 02:29:17;;;;;;;105.70;38.43;;;;;;;6.96;100.00;98242.78;4921622;29;20710;-85
2021/12/06 02:31:43;;;;;;;101.07;37.63;;;;;;;6.68;100.00;98204.78;4923720;29;20177;-84
2021/12/06 02:34:08;;;;;;;111.73;38.87;;;;;;;8.47;100.00;98510.63;4926592;29;20527;-84
2021/12/06 02:36:34;;;;;;;106.17;37.37;;;;;;;7.27;100.00;98270.00;4919792;29;20637;-85
2021/12/06 02:38:59;;;;;;;102.07;36.93;;;;;;;5.98;100.00;98076.34;4921757;29;20177;-85
2021/12/06 02:41:26;;;;;;;109.53;37.30;;;;;;;7.78;100.00;98366.78;4921345;29;20201;-85
2021/12/06 02:43:53;;;;;;;133.13;39.23;;;;;;;6.22;100.00;98096.56;4921223;29;20190;-85
2021/12/06 02:46:20;;;;;;;125.43;36.83;;;;;;;7.12;100.00;98270.25;4920656;29;20170;-84
2021/12/06 02:48:46;;;;;;;120.27;35.70;;;;;;;5.89;100.00;98051.72;4905014;29;20269;-84
2021/12/06 02:51:13;;;;;;;131.43;39.17;;;;;;;6.81;100.00;98215.38;4923503;29;20202;-85
2021/12/06 02:53:39;;;;;;;125.43;35.57;;;;;;;7.22;100.00;98281.53;4933238;29;20181;-82
2021/12/06 02:56:17;;;;;;;119.77;34.93;;;;;;;5.57;100.00;97976.75;4928613;29;20624;-85
2021/12/06 02:58:56;;;;;;;113.87;34.53;;;;;;;8.69;100.00;98487.03;4923700;29;20166;-85
2021/12/06 03:01:28;;;;;;;109.97;33.70;;;;;;;7.86;100.00;98336.03;4921028;29;20256;-84
2021/12/06 03:03:54;;;;;;;112.40;33.63;;;;;;;8.70;100.00;98479.53;4903762;29;20213;-84
2021/12/06 03:06:21;;;;;;;111.27;32.47;;;;;;;7.05;100.00;98205.41;4919656;29;20178;-84
2021/12/06 03:08:58;;;;;;;109.67;33.40;;;;;;;8.73;100.00;98484.69;4904480;29;20194;-84
2021/12/06 03:11:34;;;;;;;119.60;36.60;;;;;;;7.90;100.00;98342.06;4920193;29;20166;-86
2021/12/06 03:14:00;;;;;;;111.93;35.57;;;;;;;8.81;100.00;98495.06;4921930;29;20261;-83
2021/12/06 03:16:26;;;;;;;113.97;33.27;;;;;;;7.35;100.00;98248.47;4925028;29;20209;-84
2021/12/06 03:18:53;;;;;;;97.83;31.60;;;;;;;8.35;100.00;98434.50;4911123;29;20707;-84
2021/12/06 03:21:20;;;;;;;107.90;31.93;;;;;;;7.07;100.00;98204.66;4916904;29;20175;-84
2021/12/06 03:23:46;;;;;;;114.90;34.10;;;;;;;8.94;100.00;98521.56;4903534;29;20189;-83
2021/12/06 03:26:12;;;;;;;115.53;34.63;;;;;;;8.86;100.00;98491.88;4918923;29;20251;-83
2021/12/06 03:28:41;;;;;;;114.90;34.33;;;;;;;6.28;100.00;98037.34;4916643;29;20206;-85
2021/12/06 03:31:07;;;;;;;107.10;32.67;;;;;;;7.27;100.00;98207.06;4903751;29;20636;-84
2021/12/06 03:33:35;;;;;;;107.13;32.57;;;;;;;7.85;100.00;98338.50;4902480;29;20171;-85
2021/12/06 03:36:02;;;;;;;109.27;33.47;;;;;;;8.41;100.00;98401.06;4904205;29;20167;-84
2021/12/06 03:38:27;;;;;;;106.23;33.63;;;;;;;7.63;100.00;98249.56;4917113;29;20166;-85
2021/12/06 03:40:53;;;;;;;109.80;32.27;;;;;;;8.18;100.00;98353.22;4900957;29;20254;-83
2021/12/06 03:43:18;;;;;;;96.97;31.17;;;;;;;6.46;100.00;98065.69;4904666;29;20236;-85
2021/12/06 03:45:44;;;;;;;99.90;31.07;;;;;;;8.15;100.00;98354.75;4903103;29;20193;-85
2021/12/06 03:48:09;;;;;;;99.23;31.17;;;;;;;8.34;100.00;98417.66;4901365;29;20570;-84
2021/12/06 03:50:35;;;;;;;85.40;28.47;;;;;;;6.79;100.00;98193.47;4900970;29;20230;-84
2021/12/06 03:53:00;;;;;;;71.20;27.47;;;;;;;5.43;100.00;98022.16;4899210;29;20170;-84
2021/12/06 03:55:26;;;;;;;71.17;27.87;;;;;;;7.54;100.00;98404.47;4900214;29;20174;-84
2021/12/06 03:57:51;;;;;;;69.57;28.27;;;;;;;7.73;100.00;98460.69;4900828;29;20170;-83
2021/12/06 04:00:17;;;;;;;56.73;22.80;;;;;;;7.17;100.00;98384.53;4900651;29;20553;-84
2021/12/06 04:02:44;;;;;;;73.83;28.00;;;;;;;5.72;100.00;98112.03;4913966;29;20365;-84
2021/12/06 04:05:10;;;;;;;69.17;28.60;;;;;;;8.01;100.00;98481.91;4919960;29;20690;-84
2021/12/06 04:07:36;;;;;;;73.77;30.07;;;;;;;6.77;100.00;98318.31;4933258;29;20188;-84
2021/12/06 04:10:05;;;;;;;79.03;32.43;;;;;;;6.39;100.00;98294.97;4935327;29;20599;-84
2021/12/06 04:12:31;;;;;;;84.10;34.70;;;;;;;7.76;100.00;98495.19;4922059;29;20181;-85
2021/12/06 04:14:57;;;;;;;83.33;36.30;;;;;;;5.00;100.00;98010.31;4919493;29;20177;-83
2021/12/06 04:17:23;;;;;;;102.00;42.57;;;;;;;6.01;100.00;98176.94;4918429;29;20241;-84
2021/12/06 04:19:48;;;;;;;97.47;40.70;;;;;;;5.01;100.00;98002.00;4918401;29;20608;-84
2021/12/06 04:22:15;;;;;;;104.90;41.57;;;;;;;8.00;100.00;98482.69;4918083;29;20229;-84
2021/12/06 04:24:41;;;;;;;96.70;41.47;;;;;;;7.97;100.00;98470.84;4919434;29;20170;-84
2021/12/06 04:27:14;;;;;;;102.10;38.83;;;;;;;7.43;100.00;98456.94;4919375;29;20206;-84
2021/12/06 04:29:42;;;;;;;98.77;38.53;;;;;;;7.60;100.00;98463.53;4918643;29;20232;-85
2021/12/06 04:32:08;;;;;;;109.43;41.60;;;;;;;5.77;100.00;98153.25;4904192;29;20201;-84
2021/12/06 04:34:34;;;;;;;111.47;44.03;;;;;;;5.99;100.00;98163.44;4920746;29;20549;-85
2021/12/06 04:36:59;;;;;;;122.03;47.43;;;;;;;7.81;100.00;98487.81;4921613;29;20249;-85
2021/12/06 04:39:25;;;;;;;119.07;46.93;;;;;;;5.53;100.00;98155.59;4920523;29;20170;-84
2021/12/06 04:41:50;;;;;;;114.80;46.70;;;;;;;5.69;100.00;98144.56;4919989;29;20170;-84
2021/12/06 04:44:16;;;;;;;121.10;46.03;;;;;;;7.71;100.00;98489.13;4917734;29;20166;-84
2021/12/06 04:46:43;;;;;;;118.80;44.83;;;;;;;4.95;100.00;98069.44;4918652;29;20214;-85
2021/12/06 04:49:08;;;;;;;117.40;46.67;;;;;;;7.65;100.00;98491.41;4918495;29;20265;-85
2021/12/06 04:51:35;;;;;;;137.87;55.37;;;;;;;5.38;100.00;98108.13;4918575;29;20213;-84
2021/12/06 04:54:01;;;;;;;109.73;44.93;;;;;;;7.47;100.00;98488.16;4917770;29;20185;-86
2021/12/06 04:56:38;;;;;;;121.47;47.83;;;;;;;5.86;100.00;98186.34;4917911;29;20253;-84
2021/12/06 04:59:16;;;;;;;117.97;46.57;;;;;;;7.75;100.00;98488.44;4900363;29;20176;-85
2021/12/06 05:01:43;;;;;;;112.57;46.53;;;;;;;5.23;100.00;98047.28;4919971;29;20264;-84
2021/12/06 05:04:12;;;;;;;138.13;54.33;;;;;;;4.84;100.00;97999.56;4917443;29;20177;-85
2021/12/06 05:06:43;;;;;;;128.77;54.03;;;;;;;8.04;100.00;98484.53;4917443;29;20253;-85
2021/12/06 05:09:15;;;;;;;145.13;53.10;;;;;;;5.01;100.00;97966.91;4915950;29;20174;-86
2021/12/06 05:11:42;;;;;;;117.63;46.93;;;;;;;8.24;100.00;98484.50;4917575;29;20169;-86
2021/12/06 05:14:08;;;;;;;117.40;47.77;;;;;;;6.75;100.00;98236.94;4917628;29;20177;-85
2021/12/06 05:16:35;;;;;;;114.57;46.90;;;;;;;6.38;100.00;98185.16;4917457;29;20162;-85
2021/12/06 05:19:01;;;;;;;116.40;48.33;;;;;;;8.30;100.00;98488.94;4916313;29;20166;-84
2021/12/06 05:21:26;;;;;;;116.73;49.60;;;;;;;6.43;100.00;98196.25;4917946;29;20193;-84
2021/12/06 05:23:52;;;;;;;137.67;54.73;;;;;;;6.37;100.00;98158.31;4921769;29;20174;-84
2021/12/06 05:26:17;;;;;;;104.97;42.40;;;;;;;8.06;100.00;98495.53;4928786;29;20170;-84
2021/12/06 05:28:44;;;;;;;111.83;45.80;;;;;;;6.22;100.00;98187.00;4919739;29;20222;-85
2021/12/06 05:31:15;;;;;;;97.63;39.63;;;;;;;7.20;100.00;98353.63;4917957;29;20173;-84
2021/12/06 05:33:47;;;;;;;94.30;40.40;;;;;;;8.16;100.00;98500.13;4884825;29;20619;-84
2021/12/06 05:36:15;;;;;;;113.13;42.47;;;;;;;8.26;100.00;98502.22;4898051;29;20191;-85
2021/12/06 05:38:40;;;;;;;148.10;58.47;;;;;;;8.32;100.00;98505.84;4898254;29;20637;-85
2021/12/06 05:41:06;;;;;;;129.93;53.73;;;;;;;8.28;100.00;98493.06;4902607;29;20257;-85
2021/12/06 05:43:32;;;;;;;148.13;59.37;;;;;;;8.47;100.00;98518.19;4914913;29;20198;-84
2021/12/06 05:45:58;;;;;;;151.83;59.83;;;;;;;8.34;100.00;98527.75;4897950;29;20687;-85
2021/12/06 05:48:25;;;;;;;140.30;54.30;;;;;;;6.16;100.00;98151.56;4897970;29;20269;-85
2021/12/06 05:50:51;;;;;;;174.73;69.90;;;;;;;8.41;100.00;98501.94;4897901;29;20186;-85
2021/12/06 05:53:17;;;;;;;190.50;75.53;;;;;;;8.36;100.00;98480.75;4899340;29;20186;-84
2021/12/06 05:55:43;;;;;;;140.60;56.90;;;;;;;7.79;100.00;98369.38;4898823;29;20218;-84
2021/12/06 05:58:11;;;;;;;167.13;70.33;;;;;;;7.87;100.00;98425.06;4902308;29;20171;-86
2021/12/06 06:00:37;;;;;;;194.20;81.63;;;;;;;8.12;100.00;98511.78;4901441;29;20167;-83
2021/12/06 06:03:05;;;;;;;199.23;83.33;;;;;;;5.58;100.00;98093.03;4915977;29;20331;-84
2021/12/06 06:05:33;;;;;;;160.70;62.20;;;;;;;7.73;100.00;98390.16;4901672;29;20198;-86
2021/12/06 06:07:58;;;;;;;188.23;78.60;;;;;;;7.17;100.00;98305.69;4919368;29;20265;-86
2021/12/06 06:10:24;;;;;;;211.93;83.13;;;;;;;7.69;100.00;98384.94;4903578;29;20210;-85
2021/12/06 06:12:49;;;;;;;221.30;85.70;;;;;;;7.12;100.00;98300.44;4902465;29;20175;-84
2021/12/06 06:15:15;;;;;;;199.50;68.83;;;;;;;7.25;100.00;98322.75;4903036;29;20185;-85
2021/12/06 06:17:43;;;;;;;210.60;79.03;;;;;;;6.60;100.00;98191.91;4905839;29;20208;-84
2021/12/06 06:20:42;;;;;;;250.37;95.30;;;;;;;6.13;100.00;98083.63;4920501;29;20305;-84
2021/12/06 06:23:08;;;;;;;452.90;214.20;;;;;;;8.54;100.00;98526.84;4873479;29;20703;-85
2021/12/06 06:25:34;;;;;;;344.83;144.77;;;;;;;6.25;100.00;98212.25;4885152;29;20187;-84
2021/12/06 06:28:00;;;;;;;311.67;124.03;;;;;;;8.19;100.00;98462.44;4882015;29;20228;-83
2021/12/06 06:30:26;;;;;;;293.07;132.47;;;;;;;6.89;100.00;98302.06;4884146;29;20683;-84
2021/12/06 06:32:52;;;;;;;192.60;65.30;;;;;;;6.88;100.00;98333.03;4875015;29;20254;-85
2021/12/06 06:35:19;;;;;;;237.70;91.90;;;;;;;6.35;100.00;98180.03;4883265;29;20187;-85
2021/12/06 06:37:44;;;;;;;208.07;70.90;;;;;;;6.15;100.00;98155.75;4884160;29;20198;-84
2021/12/06 06:40:11;;;;;;;149.77;49.23;;;;;;;7.06;100.00;98310.25;4883216;29;20219;-84
2021/12/06 06:42:37;;;;;;;155.57;46.60;;;;;;;7.82;100.00;98406.41;4882810;29;20665;-85
2021/12/06 06:45:09;;;;;;;141.40;44.40;;;;;;;8.63;100.00;98506.97;4878840;29;20735;-84
2021/12/06 06:47:35;;;;;;;150.67;43.40;;;;;;;6.73;100.00;98193.25;4885374;29;20319;-85
2021/12/06 06:50:00;;;;;;;155.53;42.73;;;;;;;5.83;100.00;98043.03;4882907;29;20187;-86
2021/12/06 06:52:26;;;;;;;153.77;48.40;;;;;;;6.83;100.00;98205.38;4880837;29;20195;-84
2021/12/06 06:54:51;;;;;;;201.80;67.97;;;;;;;8.46;100.00;98477.78;4880255;29;20187;-85
2021/12/06 06:57:17;;;;;;;194.93;63.67;;;;;;;7.13;100.00;98212.44;4879718;29;20231;-86
2021/12/06 06:59:45;;;;;;;160.50;53.17;;;;;;;7.68;100.00;98298.44;4890552;29;20262;-84
2021/12/06 07:02:11;;;;;;;153.23;43.53;;;;;;;7.30;100.00;98227.31;4892549;29;20294;-84
2021/12/06 07:04:37;;;;;;;130.40;36.43;;;;;;;7.19;100.00;98224.41;4897652;29;20631;-85
2021/12/06 07:07:03;;;;;;;118.93;33.87;;;;;;;7.60;100.00;98297.31;4899850;29;20257;-84
2021/12/06 07:09:28;;;;;;;102.80;32.37;;;;;;;8.27;100.00;98395.53;4902552;29;20183;-85
2021/12/06 07:11:54;;;;;;;101.33;32.63;;;;;;;8.84;100.00;98513.66;4928773;29;20305;-86
2021/12/06 07:14:19;;;;;;;128.63;45.80;;;;;;;8.24;100.00;98408.03;4914269;29;20174;-86
2021/12/06 07:16:47;;;;;;;120.13;37.57;;;;;;;8.88;100.00;98525.59;4902766;29;20624;-85
2021/12/06 07:19:12;;;;;;;116.67;39.40;;;;;;;5.93;100.00;98053.53;4911883;29;20178;-88
2021/12/06 07:21:38;;;;;;;117.93;42.60;;;;;;;7.13;100.00;98226.69;4917099;29;20543;-86
2021/12/06 07:24:04;;;;;;;110.43;38.13;;;;;;;6.39;100.00;98088.88;4900070;29;20210;-88
2021/12/06 07:26:31;;;;;;;140.37;49.50;;;;;;;7.27;100.00;98258.28;4899336;29;20711;-85
2021/12/06 07:28:56;;;;;;;119.00;44.87;;;;;;;6.16;100.00;98061.13;4903095;29;20651;-86
2021/12/06 07:31:24;;;;;;;117.27;45.40;;;;;;;8.03;100.00;98412.25;4901763;29;20197;-85
2021/12/06 07:33:51;;;;;;;118.33;42.63;;;;;;;8.05;100.00;98450.97;4917730;29;20206;-87
2021/12/06 07:36:19;;;;;;;130.80;45.83;;;;;;;7.02;100.00;98238.00;4892367;29;20242;-87
2021/12/06 07:38:45;;;;;;;153.07;50.07;;;;;;;8.09;100.00;98432.66;4909296;29;20245;-87
2021/12/06 07:41:13;;;;;;;173.27;55.43;;;;;;;6.40;100.00;98090.56;4920227;29;20187;-85
2021/12/06 07:43:39;;;;;;;136.77;50.97;;;;;;;9.21;100.00;98512.44;4903740;29;20175;-86
2021/12/06 07:46:06;;;;;;;130.13;46.90;;;;;;;7.96;100.00;98337.25;4901059;29;20167;-87
2021/12/06 07:48:32;;;;;;;137.90;47.90;;;;;;;9.02;100.00;98515.13;4900704;29;20191;-87
2021/12/06 07:51:01;;;;;;;215.77;105.33;;;;;;;7.92;100.00;98274.94;4900362;29;20167;-88
2021/12/06 07:53:28;;;;;;;132.23;49.27;;;;;;;6.49;100.00;98040.66;4901319;29;20171;-87
2021/12/06 07:55:54;;;;;;;135.07;49.00;;;;;;;7.33;100.00;98139.34;4902270;29;20381;-88
2021/12/06 07:58:20;;;;;;;115.23;40.37;;;;;;;9.58;100.00;98466.56;4906896;29;20285;-87
2021/12/06 08:00:48;;;;;;;101.87;37.30;;;;;;;9.97;100.00;98504.03;4913716;29;20235;-86
2021/12/06 08:03:15;;;;;;;100.63;34.27;;;;;;;9.46;100.00;98439.22;4903943;29;20179;-85
2021/12/06 08:05:45;;;;;;;99.43;33.77;;;;;;;8.52;100.00;98193.00;4917892;29;20186;-87
2021/12/06 08:08:15;;;;;;;93.20;30.90;;;;;;;9.34;100.00;98336.13;4901420;29;20231;-85
2021/12/06 08:10:46;;;;;;;98.00;34.40;;;;;;;8.27;100.00;98178.72;4913905;29;20387;-86
2021/12/06 08:13:24;;;;;;;128.67;47.33;;;;;;;10.62;100.00;98512.81;4902340;29;20190;-85
2021/12/06 08:15:53;;;;;;;113.30;40.87;;;;;;;10.37;100.00;98475.81;4904250;29;20185;-86
2021/12/06 08:18:19;;;;;;;128.00;41.83;;;;;;;10.05;100.00;98512.72;4905587;29;20170;-86
2021/12/06 08:20:45;;;;;;;106.10;39.13;;;;;;;7.68;100.00;98089.41;4900873;29;20186;-88
2021/12/06 08:23:11;;;;;;;91.97;31.70;;;;;;;10.02;100.00;98491.56;4916128;29;20561;-87
2021/12/06 08:25:37;;;;;;;120.73;46.73;;;;;;;9.32;100.00;98388.25;4901020;29;20177;-85
2021/12/06 08:28:04;;;;;;;108.73;40.97;;;;;;;8.39;100.00;98302.69;4899631;29;20222;-84
2021/12/06 08:30:30;;;;;;;109.33;40.80;;;;;;;5.98;100.00;97893.03;4902013;29;20246;-86
2021/12/06 08:32:58;;;;;;;92.07;32.07;;;;;;;7.98;100.00;98194.53;4902294;29;20202;-84
2021/12/06 08:35:26;;;;;;;111.23;36.77;;;;;;;9.10;100.00;98352.16;4913627;29;20213;-84
2021/12/06 08:37:53;;;;;;;146.07;51.77;;;;;;;6.60;100.00;97995.81;4891614;28;20337;-85
2021/12/06 08:40:20;;;;;;;151.70;49.27;;;;;;;7.69;100.00;98267.41;4898240;29;20543;-85
2021/12/06 08:42:46;;;;;;;200.47;71.33;;;;;;;9.30;100.00;98482.47;4899948;29;20190;-83
2021/12/06 08:45:12;;;;;;;226.57;82.50;;;;;;;8.77;100.00;98387.22;4898580;29;20186;-85
2021/12/06 08:47:38;;;;;;;151.80;51.90;;;;;;;8.63;100.00;98381.72;4913781;29;20198;-86
2021/12/06 08:50:07;;;;;;;153.87;54.03;;;;;;;8.14;100.00;98262.28;4897936;29;20216;-84
2021/12/06 08:52:33;;;;;;;193.43;78.93;;;;;;;9.67;100.00;98487.91;4898862;29;20257;-84
2021/12/06 08:54:59;;;;;;;212.63;91.47;;;;;;;9.20;100.00;98450.16;4898644;29;20178;-86
2021/12/06 08:57:25;;;;;;;202.70;78.33;;;;;;;9.61;100.00;98491.91;4898558;29;20171;-85
2021/12/06 08:59:52;;;;;;;244.50;105.37;;;;;;;8.73;100.00;98337.50;4899301;29;20270;-85
2021/12/06 09:02:17;;;;;;;193.30;75.37;;;;;;;9.91;100.00;98491.25;4905671;29;20322;-84
2021/12/06 09:04:44;;;;;;;141.33;54.30;;;;;;;7.68;100.00;98091.06;4915547;29;20649;-84
2021/12/06 09:07:13;;;;;;;168.67;62.93;;;;;;;10.23;100.00;98504.03;4904528;29;20171;-85
2021/12/06 09:09:48;;;;;;;141.70;55.37;;;;;;;9.98;100.00;98349.03;4899233;29;20241;-86
2021/12/06 09:12:15;;;;;;;109.53;39.47;;;;;;;10.05;100.00;98342.50;4900383;29;20174;-85
2021/12/06 09:14:41;;;;;;;115.50;41.90;;;;;;;9.20;100.00;98160.63;4902519;29;20656;-84
2021/12/06 09:17:06;;;;;;;107.20;39.17;;;;;;;10.45;100.00;98367.25;4899236;29;20206;-84
2021/12/06 09:19:33;;;;;;;166.67;61.53;;;;;;;7.49;100.00;97996.44;4899765;29;20406;-84
2021/12/06 09:21:58;;;;;;;115.43;37.97;;;;;;;7.27;100.00;98029.25;4897478;29;20304;-87
2021/12/06 09:24:24;;;;;;;102.70;38.33;;;;;;;7.14;100.00;98044.72;4899089;29;20285;-86
2021/12/06 09:26:49;;;;;;;221.93;75.07;;;;;;;8.86;100.00;98365.72;4898111;29;20640;-85
2021/12/06 09:29:16;;;;;;;167.00;60.70;;;;;;;8.24;100.00;98196.28;4899063;29;20199;-85
2021/12/06 09:31:42;;;;;;;187.77;68.17;;;;;;;7.19;100.00;98059.97;4898392;29;20181;-85
2021/12/06 09:34:08;;;;;;;173.37;62.63;;;;;;;9.08;100.00;98331.06;4899521;29;20167;-85
2021/12/06 09:36:33;;;;;;;130.23;47.27;;;;;;;10.18;100.00;98427.16;4897297;29;20190;-84
2021/12/06 09:39:00;;;;;;;145.00;49.30;;;;;;;10.22;100.00;98427.28;4897424;29;20348;-85
2021/12/06 09:41:27;;;;;;;144.50;52.20;;;;;;;8.98;100.00;98172.59;4898498;29;20190;-84
2021/12/06 09:43:56;;;;;;;167.33;58.57;;;;;;;7.83;100.00;97977.38;4898694;29;20665;-85
2021/12/06 09:46:22;;;;;;;184.67;71.93;;;;;;;9.26;100.00;98221.41;4915482;29;20182;-84
2021/12/06 09:48:48;;;;;;;166.03;59.77;;;;;;;10.60;100.00;98429.22;4897078;29;20266;-86
2021/12/06 09:51:25;;;;;;;192.40;60.67;;;;;;;10.05;100.00;98416.66;4897409;29;20182;-84
2021/12/06 09:53:53;;;;;;;193.60;75.27;;;;;;;8.95;100.00;98182.59;4879947;29;20245;-87
2021/12/06 09:56:23;;;;;;;181.37;62.53;;;;;;;8.74;100.00;98162.59;4899793;29;20265;-86
2021/12/06 09:58:50;;;;;;;157.00;54.70;;;;;;;9.08;100.00;98194.75;4899174;29;20189;-86
2021/12/06 10:01:21;;;;;;;136.57;50.87;;;;;;;9.68;100.00;98268.94;4485953;29;10000681;-85
2021/12/06 10:03:49;;;;;;;135.90;51.00;;;;;;;8.85;100.00;98099.03;4923895;29;20194;-86
2021/12/06 10:06:16;;;;;;;131.77;48.77;;;;;;;8.22;100.00;97981.94;4887486;29;20194;-86
2021/12/06 10:08:46;;;;;;;119.13;43.53;;;;;;;9.69;100.00;98162.00;4900133;29;20254;-87
2021/12/06 10:11:14;;;;;;;155.97;56.90;;;;;;;10.57;100.00;98378.56;4899574;29;20215;-86
2021/12/06 10:13:41;;;;;;;279.00;145.37;;;;;;;9.69;100.00;98270.66;4903084;29;20977;-84
2021/12/06 10:16:08;;;;;;;123.63;45.27;;;;;;;7.86;100.00;97947.22;4902795;29;20186;-87
2021/12/06 10:18:34;;;;;;;163.03;59.03;;;;;;;7.95;100.00;97887.03;4907991;29;20191;-85
2021/12/06 10:21:02;;;;;;;148.83;54.07;;;;;;;8.37;100.00;97927.78;4900770;29;20218;-87
2021/12/06 10:23:29;;;;;;;135.53;51.60;;;;;;;7.92;100.00;97796.25;4900483;29;20179;-85
2021/12/06 10:25:56;;;;;;;135.17;48.53;;;;;;;10.80;100.00;98264.38;4901138;29;20187;-86
2021/12/06 10:28:27;;;;;;;129.83;44.03;;;;;;;11.16;100.00;98366.56;4901422;29;20213;-84
2021/12/06 10:30:55;;;;;;;135.93;45.93;;;;;;;8.70;100.00;97911.91;4899162;29;20171;-86
2021/12/06 10:33:26;;;;;;;133.47;49.30;;;;;;;9.50;100.00;98052.03;4899788;29;20625;-86
2021/12/06 10:35:55;;;;;;;121.57;45.90;;;;;;;11.13;100.00;98346.22;4900886;29;20273;-85
2021/12/06 10:38:28;;;;;;;122.43;43.60;;;;;;;8.78;100.00;97943.25;4901937;29;20178;-85
2021/12/06 10:41:00;;;;;;;131.30;45.30;;;;;;;11.47;100.00;98333.56;4907092;29;20223;-82
2021/12/06 10:43:27;;;;;;;112.53;39.90;;;;;;;11.17;100.00;98351.44;4907306;29;20668;-83
2021/12/06 10:45:54;;;;;;;108.63;39.17;;;;;;;11.44;100.00;98347.81;4914834;29;20186;-86
2021/12/06 10:48:34;;;;;;;97.93;37.33;;;;;;;9.72;100.00;98036.63;4907626;29;20210;-87
2021/12/06 10:51:11;;;;;;;97.83;35.30;;;;;;;11.41;100.00;98360.41;4908261;29;20309;-86
2021/12/06 10:54:05;;;;;;;94.43;35.13;;;;;;;11.37;100.00;98344.28;4902093;29;20222;-85
2021/12/06 10:56:45;;;;;;;99.53;35.87;;;;;;;11.23;100.00;98333.81;4903489;29;20679;-87
2021/12/06 10:59:14;;;;;;;99.07;37.80;;;;;;;11.00;100.00;98286.84;4902256;29;20242;-86
2021/12/06 11:01:39;;;;;;;89.50;33.97;;;;;;;10.88;100.00;98222.38;4901596;29;20347;-85
2021/12/06 11:04:08;;;;;;;97.03;34.57;;;;;;;10.18;100.00;98123.72;4902881;29;20309;-86
2021/12/06 11:06:42;;;;;;;96.30;35.23;;;;;;;9.65;100.00;98009.47;4902895;29;20175;-88
2021/12/06 11:09:10;;;;;;;90.63;34.80;;;;;;;11.10;100.00;98209.38;4905517;29;20229;-85
2021/12/06 11:11:42;;;;;;;91.00;34.40;;;;;;;11.72;100.00;98299.50;4918074;29;20202;-87
2021/12/06 11:14:22;;;;;;;88.63;31.97;;;;;;;11.49;100.00;98245.75;4918028;29;20187;-84
2021/12/06 11:16:53;;;;;;;95.70;34.27;;;;;;;10.88;100.00;98304.25;4910657;29;20213;-84
2021/12/06 11:19:20;;;;;;;113.67;40.37;;;;;;;9.13;100.00;98003.88;4902686;29;20206;-85
2021/12/06 11:21:54;;;;;;;281.93;109.60;;;;;;;8.37;100.00;97854.66;4904928;29;20193;-87
2021/12/06 11:24:30;;;;;;;114.10;43.60;;;;;;;10.50;100.00;98176.78;4902311;29;20554;-84
2021/12/06 11:27:17;;;;;;;108.70;37.87;;;;;;;10.70;100.00;98207.63;4900431;29;20182;-81